Time;durP1;ratioP1;P1;durP2;ratioP2;P2;SDS_P1;SDS_P2;PMS_P1;PMS_P2;Temp;Humidity;BMP_temperature;BMP_pressure;BME280_temperature;BME280_humidity;BME280_pressure;Samples;Min_cycle;Max_cycle;Signal;HPM_P1;HPM_P2
2022/10/13 00:01:18;;;;;;;11.73;6.22;;;;;;;12.36;61.36;100535.59;3145224;28;20052;-66
2022/10/13 00:02:49;;;;;;;13.20;6.38;;;;;;;12.35;61.27;100531.28;3145601;28;20116;-66
2022/10/13 00:04:21;;;;;;;13.05;6.38;;;;;;;12.36;60.88;100532.97;3145563;28;20048;-66
2022/10/13 00:05:55;;;;;;;21.02;6.72;;;;;;;12.37;61.34;100541.69;3145645;28;20094;-66
2022/10/13 00:07:26;;;;;;;22.90;6.47;;;;;;;12.36;61.18;100540.81;3145478;28;20592;-66
2022/10/13 00:08:59;;;;;;;9.77;5.60;;;;;;;12.33;60.96;100525.28;3145282;28;20458;-67
2022/10/13 00:10:29;;;;;;;10.05;6.75;;;;;;;12.37;60.86;100539.94;3145737;28;20454;-66
2022/10/13 00:12:01;;;;;;;9.95;6.45;;;;;;;12.38;61.20;100540.78;3145546;28;20135;-66
2022/10/13 00:13:33;;;;;;;11.55;6.10;;;;;;;12.39;61.13;100539.84;3145137;28;20056;-66
2022/10/13 00:15:07;;;;;;;13.90;6.68;;;;;;;12.38;60.85;100532.94;3145358;28;20427;-66
2022/10/13 00:16:39;;;;;;;10.27;6.07;;;;;;;12.39;60.96;100540.69;3145411;28;20598;-67
2022/10/13 00:18:10;;;;;;;16.70;7.25;;;;;;;12.40;61.22;100541.56;3133116;28;20053;-66
2022/10/13 00:19:42;;;;;;;15.40;6.28;;;;;;;12.38;60.87;100532.94;3143957;28;20053;-66
2022/10/13 00:21:17;;;;;;;13.02;6.28;;;;;;;12.38;61.29;100539.00;3145240;28;20562;-66
2022/10/13 00:22:49;;;;;;;11.93;6.38;;;;;;;12.38;61.17;100540.78;3145453;28;20052;-66
2022/10/13 00:24:21;;;;;;;11.73;5.82;;;;;;;12.39;61.36;100548.53;3145342;28;20394;-66
2022/10/13 00:25:52;;;;;;;13.07;6.25;;;;;;;12.39;61.06;100543.31;3145355;28;20048;-67
2022/10/13 00:27:23;;;;;;;12.18;6.60;;;;;;;12.38;61.36;100551.22;3145202;28;20183;-66
2022/10/13 00:28:56;;;;;;;14.48;6.53;;;;;;;12.36;61.30;100543.44;3145133;28;20094;-66
2022/10/13 00:30:27;;;;;;;13.27;7.07;;;;;;;12.39;61.01;100539.84;3145296;28;20052;-65
2022/10/13 00:31:59;;;;;;;14.23;6.13;;;;;;;12.40;61.31;100544.19;3145164;28;20117;-66
2022/10/13 00:33:29;;;;;;;13.25;6.90;;;;;;;12.40;61.19;100542.41;3145252;28;20163;-66
2022/10/13 00:35:01;;;;;;;11.77;6.53;;;;;;;12.41;61.18;100549.31;3145190;28;20052;-66
2022/10/13 00:36:34;;;;;;;14.90;6.47;;;;;;;12.41;61.06;100538.88;3145123;28;20068;-66
2022/10/13 00:38:05;;;;;;;12.68;6.50;;;;;;;12.41;61.12;100544.09;3145199;28;20052;-66
2022/10/13 00:39:37;;;;;;;12.35;6.40;;;;;;;12.42;61.33;100542.34;3144761;28;20060;-66
2022/10/13 00:41:09;;;;;;;9.40;6.03;;;;;;;12.42;61.45;100542.34;3145060;28;20051;-67
2022/10/13 00:42:41;;;;;;;13.00;5.90;;;;;;;12.39;61.37;100543.31;3144952;28;20056;-66
2022/10/13 00:44:50;;;;;;;12.25;6.30;;;;;;;12.40;61.13;100550.25;3144971;28;20044;-66
2022/10/13 00:46:23;;;;;;;14.05;6.32;;;;;;;12.35;61.43;100539.13;3144511;28;20129;-66
2022/10/13 00:47:57;;;;;;;10.48;5.75;;;;;;;12.38;61.46;100546.84;3145083;28;20056;-66
2022/10/13 00:49:29;;;;;;;12.65;6.50;;;;;;;12.37;61.52;100539.94;3145054;28;20087;-66
2022/10/13 00:51:01;;;;;;;16.42;6.45;;;;;;;12.37;61.33;100542.53;3144721;28;20476;-66
2022/10/13 00:52:35;;;;;;;11.27;6.20;;;;;;;12.35;61.45;100543.50;3144642;28;20629;-66
2022/10/13 00:54:07;;;;;;;;;;;;;;;12.31;61.44;100540.19;3145474;28;20050;-66
2022/10/13 00:55:55;;;;;;;9.98;5.10;;;;;;;12.25;61.23;100535.22;3144880;28;19932;-66
2022/10/13 00:57:27;;;;;;;17.83;6.50;;;;;;;12.25;61.62;100543.03;3144972;28;20050;-66
2022/10/13 00:59:01;;;;;;;10.50;5.35;;;;;;;12.23;61.46;100542.25;3144823;28;20064;-66
2022/10/13 01:00:34;;;;;;;9.10;5.22;;;;;;;12.21;61.60;100537.06;3145073;28;20098;-66
2022/10/13 01:02:07;;;;;;;9.75;5.82;;;;;;;12.12;61.75;100523.53;3144988;28;20052;-66
2022/10/13 01:03:39;;;;;;;13.07;5.70;;;;;;;12.16;61.97;100535.59;3144944;28;20070;-66
2022/10/13 01:05:10;;;;;;;13.52;6.13;;;;;;;12.16;61.61;100536.44;3144753;28;20056;-68
2022/10/13 01:06:43;;;;;;;12.20;6.38;;;;;;;12.16;62.00;100540.81;3144869;28;20052;-67
2022/10/13 01:08:18;;;;;;;10.68;6.45;;;;;;;12.16;61.85;100538.19;3144779;28;20068;-67
2022/10/13 01:09:49;;;;;;;12.98;6.35;;;;;;;12.16;62.27;100536.44;3144786;28;20449;-67
2022/10/13 01:11:40;;;;;;;13.05;7.13;;;;;;;12.17;62.08;100538.13;3144461;28;20052;-66
2022/10/13 01:13:19;;;;;;;13.20;6.68;;;;;;;12.17;62.19;100532.91;3138898;28;20479;-66
2022/10/13 01:14:58;;;;;;;17.52;6.75;;;;;;;12.17;62.23;100535.50;3132531;28;20053;-66
2022/10/13 01:16:39;;;;;;;15.65;7.47;;;;;;;12.17;62.30;100522.44;3132303;28;20118;-66
2022/10/13 01:18:20;;;;;;;12.82;6.93;;;;;;;12.17;62.62;100524.22;3132399;28;20049;-66
2022/10/13 01:20:31;;;;;;;15.60;7.53;;;;;;;12.17;62.55;100529.44;3132337;28;20118;-66
2022/10/13 01:22:18;;;;;;;15.05;8.10;;;;;;;12.16;62.64;100525.13;3129114;28;20131;-66
2022/10/13 01:24:21;;;;;;;14.20;7.85;;;;;;;12.16;63.10;100527.75;3144696;28;20406;-66
2022/10/13 01:26:17;;;;;;;13.30;7.65;;;;;;;12.15;63.26;100523.41;3141891;28;20060;-66
2022/10/13 01:28:15;;;;;;;16.63;9.13;;;;;;;12.15;63.24;100531.25;3144026;28;20135;-68
2022/10/13 01:30:10;;;;;;;15.73;8.23;;;;;;;12.15;63.68;100523.41;3144820;28;20053;-67
2022/10/13 01:31:49;;;;;;;14.75;8.98;;;;;;;12.14;63.75;100527.78;3138973;28;20057;-66
2022/10/13 01:33:30;;;;;;;15.35;8.70;;;;;;;12.14;63.87;100519.97;3143507;28;20060;-68
2022/10/13 01:35:07;;;;;;;13.15;7.55;;;;;;;12.13;64.08;100514.81;3144116;28;20540;-67
2022/10/13 01:36:48;;;;;;;13.57;8.63;;;;;;;12.13;64.66;100520.88;3144380;28;20048;-67
2022/10/13 01:38:28;;;;;;;20.60;9.40;;;;;;;12.09;64.78;100519.28;3143629;28;20063;-66
2022/10/13 01:40:06;;;;;;;17.70;10.02;;;;;;;12.09;64.91;100513.22;3142624;28;20052;-66
2022/10/13 01:41:40;;;;;;;23.60;9.38;;;;;;;12.03;65.14;100506.47;3144646;28;20048;-66
2022/10/13 01:43:16;;;;;;;20.23;9.63;;;;;;;12.06;65.59;100525.47;3144531;28;20044;-66
2022/10/13 01:44:51;;;;;;;19.95;9.32;;;;;;;12.04;65.70;100516.88;3144436;28;20130;-67
2022/10/13 01:46:28;;;;;;;20.70;10.02;;;;;;;12.01;66.05;100510.94;3144804;28;20055;-67
2022/10/13 01:48:01;;;;;;;19.67;9.57;;;;;;;11.97;66.25;100507.56;3144428;28;20052;-67
2022/10/13 01:49:35;;;;;;;16.15;10.00;;;;;;;11.97;66.62;100512.78;3144775;28;20045;-67
2022/10/13 01:51:12;;;;;;;19.52;10.20;;;;;;;11.93;67.39;100508.63;3144294;28;20074;-67
2022/10/13 01:52:45;;;;;;;17.75;9.98;;;;;;;11.90;67.47;100516.56;3144010;28;20044;-66
2022/10/13 01:54:17;;;;;;;17.08;9.85;;;;;;;11.90;67.27;100515.72;3144501;28;20072;-66
2022/10/13 01:55:50;;;;;;;16.92;9.90;;;;;;;11.88;67.32;100515.75;3144269;28;20055;-66
2022/10/13 01:57:33;;;;;;;16.90;10.07;;;;;;;11.80;67.74;100502.13;3143766;28;20056;-66
2022/10/13 01:59:11;;;;;;;18.37;9.67;;;;;;;11.83;67.82;100515.06;3136830;28;20829;-66
2022/10/13 02:00:49;;;;;;;19.58;10.05;;;;;;;11.83;67.86;100518.53;3124942;28;20103;-66
2022/10/13 02:02:30;;;;;;;18.02;9.43;;;;;;;11.80;67.73;100509.94;3137464;28;20052;-66
2022/10/13 02:04:15;;;;;;;15.70;9.57;;;;;;;11.80;68.01;100520.38;3139312;28;20202;-66
2022/10/13 02:05:55;;;;;;;15.25;8.98;;;;;;;11.77;67.81;100513.56;3141642;28;20360;-66
2022/10/13 02:07:33;;;;;;;18.67;10.48;;;;;;;11.75;68.28;100509.31;3141800;28;20106;-66
2022/10/13 02:09:10;;;;;;;21.40;10.70;;;;;;;11.70;68.13;100506.00;3141675;28;20059;-66
2022/10/13 02:10:51;;;;;;;18.05;10.43;;;;;;;11.65;68.41;100508.78;3141585;28;20058;-67
2022/10/13 02:12:29;;;;;;;17.90;10.23;;;;;;;11.56;68.99;100509.13;3141396;28;20052;-66
2022/10/13 02:14:06;;;;;;;23.63;10.70;;;;;;;11.49;68.97;100511.13;3135473;28;20052;-66
2022/10/13 02:15:43;;;;;;;19.40;10.35;;;;;;;11.43;69.04;100516.59;3141720;28;20150;-66
2022/10/13 02:17:16;;;;;;;20.23;10.80;;;;;;;11.38;69.19;100513.28;3141688;28;20052;-66
2022/10/13 02:18:50;;;;;;;17.65;10.02;;;;;;;11.36;69.40;100509.91;3141705;28;20052;-66
2022/10/13 02:20:23;;;;;;;17.75;10.00;;;;;;;11.34;69.44;100509.94;3141350;28;20052;-66
2022/10/13 02:21:57;;;;;;;18.27;10.73;;;;;;;11.33;69.04;100502.19;3141504;28;20490;-66
2022/10/13 02:23:30;;;;;;;20.77;10.80;;;;;;;11.29;69.15;100506.66;3141305;28;20531;-67
2022/10/13 02:25:01;;;;;;;18.27;11.20;;;;;;;11.26;69.27;100506.78;3141357;28;20052;-66
2022/10/13 02:26:35;;;;;;;20.30;10.98;;;;;;;11.24;69.46;100507.72;3141312;28;20352;-66
2022/10/13 02:28:06;;;;;;;20.65;11.63;;;;;;;11.20;69.91;100512.22;3141298;28;20437;-67
2022/10/13 02:29:50;;;;;;;17.77;10.77;;;;;;;11.15;70.02;100504.56;3141297;28;20052;-66
2022/10/13 02:31:22;;;;;;;17.77;10.90;;;;;;;11.13;69.90;100511.59;3140912;28;20452;-67
2022/10/13 02:32:53;;;;;;;19.92;11.60;;;;;;;11.12;69.78;100506.41;3141328;28;20048;-67
2022/10/13 02:34:26;;;;;;;21.23;11.20;;;;;;;11.10;69.96;100516.06;3141345;28;20082;-65
2022/10/13 02:35:57;;;;;;;;;;;;;;;11.05;70.21;100504.94;3141554;28;20052;-65
2022/10/13 02:37:29;;;;;;;20.15;10.73;;;;;;;11.02;70.38;100510.28;3141108;28;20011;-67
2022/10/13 02:39:01;;;;;;;23.83;11.20;;;;;;;11.02;70.29;100505.06;3136663;28;20063;-66
2022/10/13 02:40:33;;;;;;;20.23;11.25;;;;;;;11.02;69.99;100512.88;3141179;28;20053;-67
2022/10/13 02:42:06;;;;;;;22.17;11.68;;;;;;;11.01;70.28;100511.19;3141464;28;20052;-67
2022/10/13 02:43:37;;;;;;;21.48;11.93;;;;;;;11.01;70.06;100512.03;3140891;28;20055;-67
2022/10/13 02:45:10;;;;;;;21.40;11.32;;;;;;;11.02;70.27;100516.31;3141567;28;20044;-68
2022/10/13 02:46:42;;;;;;;20.08;11.98;;;;;;;11.00;70.26;100507.69;3141340;28;20063;-67
2022/10/13 02:48:14;;;;;;;21.85;11.48;;;;;;;11.00;70.37;100512.06;3140809;28;20060;-67
2022/10/13 02:49:47;;;;;;;21.33;11.48;;;;;;;11.00;70.26;100512.06;3141177;28;20567;-67
2022/10/13 02:51:19;;;;;;;20.63;12.02;;;;;;;11.00;70.07;100515.53;3140502;28;20114;-67
2022/10/13 02:52:51;;;;;;;20.85;12.75;;;;;;;11.01;70.28;100511.19;3140438;28;20576;-67
2022/10/13 02:54:24;;;;;;;25.55;13.02;;;;;;;11.02;70.03;100516.31;3140436;28;20063;-67
2022/10/13 02:55:54;;;;;;;20.20;11.48;;;;;;;11.03;69.82;100512.84;3140255;28;20058;-68
2022/10/13 02:57:27;;;;;;;23.17;11.90;;;;;;;11.05;70.27;100510.16;3140430;28;20540;-67
2022/10/13 02:58:59;;;;;;;25.00;11.65;;;;;;;11.06;70.17;100510.13;3140688;28;20088;-67
2022/10/13 03:00:31;;;;;;;22.30;12.52;;;;;;;11.05;69.94;100497.97;3140277;28;20173;-67
2022/10/13 03:02:03;;;;;;;19.90;12.15;;;;;;;11.07;69.77;100505.75;3140423;28;20453;-66
2022/10/13 03:03:35;;;;;;;22.40;12.32;;;;;;;11.08;69.76;100504.84;3140346;28;20106;-68
2022/10/13 03:05:09;;;;;;;19.45;11.98;;;;;;;11.07;69.81;100506.59;3140652;28;20102;-67
2022/10/13 03:06:40;;;;;;;21.42;11.05;;;;;;;11.07;69.87;100504.00;3140531;28;20056;-67
2022/10/13 03:08:12;;;;;;;22.20;12.60;;;;;;;11.06;69.89;100506.63;3140411;28;20056;-67
2022/10/13 03:09:44;;;;;;;20.38;11.35;;;;;;;11.03;70.10;100502.41;3140099;28;20105;-67
2022/10/13 03:11:16;;;;;;;22.23;11.88;;;;;;;11.04;70.12;100503.25;3140242;28;20550;-67
2022/10/13 03:12:48;;;;;;;23.60;11.55;;;;;;;11.05;69.77;100505.78;3140140;28;20156;-68
2022/10/13 03:14:19;;;;;;;20.23;11.07;;;;;;;11.04;69.81;100496.28;3140233;28;20056;-68
2022/10/13 03:15:51;;;;;;;18.10;10.73;;;;;;;11.00;69.92;100494.69;3140358;28;20084;-68
2022/10/13 03:17:22;;;;;;;26.90;11.23;;;;;;;11.03;69.54;100497.19;3140277;28;20048;-65
2022/10/13 03:18:54;;;;;;;23.08;10.73;;;;;;;11.04;69.80;100495.44;3139913;28;20121;-67
2022/10/13 03:20:28;;;;;;;21.65;11.77;;;;;;;11.01;69.35;100501.59;3140070;28;20593;-66
2022/10/13 03:21:59;;;;;;;;;;;;;;;10.92;69.73;100496.72;3137513;28;20469;-68
2022/10/13 03:23:31;;;;;;;21.67;10.38;;;;;;;10.93;69.37;100506.22;3140237;28;20377;-68
2022/10/13 03:25:04;;;;;;;22.98;11.15;;;;;;;10.93;69.60;100498.41;3140158;28;20060;-68
2022/10/13 03:26:36;;;;;;;20.67;11.65;;;;;;;10.95;69.34;100503.59;3140182;28;20543;-69
2022/10/13 03:28:08;;;;;;;25.58;11.50;;;;;;;10.92;69.48;100507.16;3139868;28;20048;-69
2022/10/13 03:29:40;;;;;;;23.08;10.30;;;;;;;10.87;69.56;100488.22;3140153;28;20048;-68
2022/10/13 03:31:11;;;;;;;23.38;11.05;;;;;;;10.92;69.57;100501.94;3139977;28;20056;-68
2022/10/13 03:32:43;;;;;;;22.52;10.75;;;;;;;10.91;69.68;100500.22;3139853;28;20057;-69
2022/10/13 03:34:16;;;;;;;20.27;11.05;;;;;;;10.90;69.44;100490.72;3140196;28;20074;-69
2022/10/13 03:35:49;;;;;;;22.30;10.90;;;;;;;10.89;69.60;100491.63;3139865;28;20064;-68
2022/10/13 03:37:21;;;;;;;21.88;11.20;;;;;;;10.85;69.62;100490.84;3139817;28;20094;-68
2022/10/13 03:38:53;;;;;;;18.98;11.02;;;;;;;10.83;70.01;100489.22;3137132;28;20056;-68
2022/10/13 03:40:24;;;;;;;21.23;11.25;;;;;;;10.79;69.84;100492.84;3139959;28;20060;-69
2022/10/13 03:41:56;;;;;;;23.63;11.68;;;;;;;10.74;70.20;100489.53;3140130;28;20052;-66
2022/10/13 03:43:28;;;;;;;20.73;10.65;;;;;;;10.69;70.33;100495.75;3139898;28;20194;-68
2022/10/13 03:45:00;;;;;;;18.67;11.18;;;;;;;10.68;70.14;100488.88;3140065;28;20081;-69
2022/10/13 03:46:32;;;;;;;22.27;12.00;;;;;;;10.68;70.49;100494.06;3139716;28;20095;-67
2022/10/13 03:48:04;;;;;;;19.40;11.57;;;;;;;10.67;70.07;100478.47;3139800;28;20134;-68
2022/10/13 03:49:37;;;;;;;20.27;11.90;;;;;;;10.69;69.99;100487.09;3143490;28;20114;-68
2022/10/13 03:51:12;;;;;;;27.15;11.63;;;;;;;10.69;70.02;100485.34;3103656;28;1183451;-66
2022/10/13 03:52:44;;;;;;;23.33;11.98;;;;;;;10.69;70.32;100480.13;3145337;28;20048;-67
2022/10/13 03:54:16;;;;;;;23.23;11.73;;;;;;;10.67;70.51;100487.13;3145674;28;20052;-66
2022/10/13 03:55:50;;;;;;;27.70;12.63;;;;;;;10.69;70.24;100484.50;3145436;28;20049;-66
2022/10/13 03:57:22;;;;;;;25.70;11.85;;;;;;;10.65;70.27;100486.38;3145610;28;20049;-67
2022/10/13 03:58:55;;;;;;;21.67;11.52;;;;;;;10.64;70.42;100479.44;3145336;28;20071;-67
2022/10/13 04:00:27;;;;;;;25.33;12.23;;;;;;;10.63;70.17;100482.09;3144821;28;20494;-65
2022/10/13 04:01:58;;;;;;;29.42;11.93;;;;;;;10.59;70.20;100483.97;3133477;28;20122;-66
2022/10/13 04:03:30;;;;;;;18.10;10.85;;;;;;;10.53;70.76;100472.88;3144504;28;20445;-66
2022/10/13 04:05:02;;;;;;;30.38;12.32;;;;;;;10.52;71.09;100481.63;3145235;28;20440;-66
2022/10/13 04:06:35;;;;;;;22.48;11.48;;;;;;;10.50;70.97;100480.81;3145539;28;20040;-64
2022/10/13 04:08:07;;;;;;;24.45;11.07;;;;;;;10.48;71.01;100483.47;3145575;28;20571;-68
2022/10/13 04:09:39;;;;;;;21.35;12.30;;;;;;;10.47;70.78;100482.63;3145518;28;20102;-67
2022/10/13 04:11:12;;;;;;;25.00;11.15;;;;;;;10.50;71.20;100484.28;3145444;28;20115;-66
2022/10/13 04:12:44;;;;;;;27.83;13.25;;;;;;;10.48;71.05;100486.09;3145141;28;20825;-64
2022/10/13 04:14:16;;;;;;;19.27;10.80;;;;;;;10.49;71.15;100487.78;3144321;28;20121;-66
2022/10/13 04:15:46;;;;;;;20.98;10.90;;;;;;;10.50;70.76;100486.91;3145193;28;20052;-66
2022/10/13 04:17:18;;;;;;;38.53;19.10;;;;;;;10.51;70.96;100490.34;3144188;28;20045;-66
2022/10/13 04:18:51;;;;;;;110.05;54.08;;;;;;;10.51;70.95;100485.97;3145065;28;20822;-67
2022/10/13 04:20:23;;;;;;;77.95;44.83;;;;;;;10.50;70.47;100492.09;3145499;28;20141;-66
2022/10/13 04:21:56;;;;;;;29.33;14.70;;;;;;;10.51;70.41;100498.16;3144676;28;20056;-66
2022/10/13 04:23:27;;;;;;;23.48;11.43;;;;;;;10.49;70.52;100498.19;3145163;28;20045;-64
2022/10/13 04:24:59;;;;;;;33.13;12.07;;;;;;;10.45;70.77;100496.59;3145309;28;20190;-65
2022/10/13 04:26:33;;;;;;;22.70;11.25;;;;;;;10.44;70.71;100495.75;3145297;28;20205;-63
2022/10/13 04:28:08;;;;;;;24.58;10.93;;;;;;;10.42;70.88;100488.91;3145302;28;20048;-63
2022/10/13 04:29:40;;;;;;;24.52;11.20;;;;;;;10.41;70.78;100502.78;3144804;28;20098;-65
2022/10/13 04:31:12;;;;;;;18.70;11.13;;;;;;;10.35;71.15;100501.28;3145072;28;20048;-66
2022/10/13 04:32:44;;;;;;;20.65;11.07;;;;;;;10.36;70.89;100512.53;3145250;28;20094;-66
2022/10/13 04:34:16;;;;;;;21.42;12.23;;;;;;;10.35;71.05;100498.66;3145200;28;20508;-66
2022/10/13 04:35:47;;;;;;;33.20;12.30;;;;;;;10.33;71.00;100494.41;3144822;28;20049;-66
2022/10/13 04:37:21;;;;;;;27.08;12.50;;;;;;;10.37;71.46;100509.03;3145195;28;20515;-64
2022/10/13 04:38:53;;;;;;;27.17;12.63;;;;;;;10.37;71.01;100498.59;3139864;28;20067;-67
2022/10/13 04:40:26;;;;;;;26.30;11.75;;;;;;;10.32;71.58;100500.50;3132797;28;20049;-66
2022/10/13 04:41:58;;;;;;;19.60;11.07;;;;;;;10.39;71.13;100502.03;3143252;28;20464;-66
2022/10/13 04:43:30;;;;;;;25.77;11.60;;;;;;;10.42;71.04;100500.16;3145069;28;20531;-65
2022/10/13 04:45:02;;;;;;;24.70;11.88;;;;;;;10.43;71.01;100503.59;3144747;28;20049;-65
2022/10/13 04:46:34;;;;;;;29.27;12.07;;;;;;;10.43;71.08;100504.44;3144789;28;20128;-65
2022/10/13 04:48:06;;;;;;;21.40;11.48;;;;;;;10.45;71.25;100502.66;3145171;28;20110;-65
2022/10/13 04:49:38;;;;;;;26.10;11.75;;;;;;;10.47;71.24;100500.88;3144840;28;20045;-65
2022/10/13 04:51:13;;;;;;;23.95;11.70;;;;;;;10.50;70.98;100499.03;3144690;28;20394;-65
2022/10/13 04:52:46;;;;;;;23.55;12.07;;;;;;;10.48;71.00;100497.34;3144901;28;20051;-65
2022/10/13 04:54:18;;;;;;;27.75;11.05;;;;;;;10.49;70.77;100503.41;3144710;28;20051;-65
2022/10/13 04:55:50;;;;;;;25.02;11.13;;;;;;;10.51;70.95;100511.19;3145018;28;20040;-65
2022/10/13 04:57:22;;;;;;;25.30;12.25;;;;;;;10.51;71.04;100503.38;3144749;28;20362;-65
2022/10/13 04:58:54;;;;;;;23.63;12.27;;;;;;;10.45;71.00;100494.84;3144857;28;20076;-65
2022/10/13 05:00:26;;;;;;;22.38;11.50;;;;;;;10.56;70.95;100504.03;3144890;28;20067;-65
2022/10/13 05:01:58;;;;;;;33.25;12.48;;;;;;;10.57;70.64;100508.38;3132645;28;20437;-65
2022/10/13 05:03:29;;;;;;;21.27;12.40;;;;;;;10.59;70.67;100510.03;3143631;28;20072;-65
2022/10/13 05:05:01;;;;;;;31.00;12.07;;;;;;;10.61;70.93;100502.13;3144881;28;20059;-65
2022/10/13 05:06:36;;;;;;;20.92;11.18;;;;;;;10.57;70.47;100503.16;3144870;28;20053;-65
2022/10/13 05:08:09;;;;;;;23.50;12.27;;;;;;;10.63;70.37;100510.75;3145060;28;20044;-65
2022/10/13 05:09:41;;;;;;;23.13;11.20;;;;;;;10.62;70.77;100517.72;3144845;28;20045;-64
2022/10/13 05:11:13;;;;;;;22.42;11.52;;;;;;;10.64;70.44;100515.06;3144809;28;20063;-65
2022/10/13 05:12:45;;;;;;;19.45;11.10;;;;;;;10.65;70.59;100509.81;3144051;28;20586;-65
2022/10/13 05:14:17;;;;;;;24.13;11.13;;;;;;;10.68;70.47;100511.47;3144721;28;20052;-63
2022/10/13 05:15:48;;;;;;;22.45;11.70;;;;;;;10.70;70.42;100507.88;3143298;28;20053;-69
2022/10/13 05:17:20;;;;;;;34.85;17.30;;;;;;;10.73;70.46;100504.31;3143332;28;20113;-69
2022/10/13 05:18:54;;;;;;;33.75;16.55;;;;;;;10.77;70.37;100508.53;3144615;28;20433;-69
2022/10/13 05:20:26;;;;;;;80.80;44.55;;;;;;;10.79;70.08;100506.69;3144737;28;20036;-65
2022/10/13 05:21:57;;;;;;;26.88;13.35;;;;;;;10.82;70.24;100510.97;3144702;28;20044;-65
2022/10/13 05:23:31;;;;;;;22.02;11.40;;;;;;;10.80;69.90;100505.81;3144605;28;20101;-68
2022/10/13 05:25:03;;;;;;;26.15;11.65;;;;;;;10.85;69.87;100511.69;3144698;28;20500;-65
2022/10/13 05:26:36;;;;;;;31.92;12.02;;;;;;;10.86;70.03;100505.59;3140374;28;20037;-62
2022/10/13 05:28:08;;;;;;;30.60;11.38;;;;;;;10.89;69.76;100508.09;3137278;28;20052;-62
2022/10/13 05:29:41;;;;;;;24.53;11.10;;;;;;;10.90;69.52;100512.41;3143620;28;20115;-61
2022/10/13 05:31:15;;;;;;;34.33;11.13;;;;;;;10.91;69.46;100515.84;3144705;28;20310;-61
2022/10/13 05:32:47;;;;;;;24.35;10.88;;;;;;;10.93;69.36;100512.28;3144436;28;20394;-63
2022/10/13 05:34:19;;;;;;;20.05;10.45;;;;;;;10.95;69.60;100520.06;3144647;28;20079;-63
2022/10/13 05:35:50;;;;;;;26.30;10.73;;;;;;;10.98;69.41;100512.16;3144388;28;20048;-63
2022/10/13 05:37:22;;;;;;;21.77;11.48;;;;;;;10.99;69.33;100506.00;3144827;28;20437;-63
2022/10/13 05:38:57;;;;;;;28.48;11.18;;;;;;;11.03;69.19;100514.56;3140731;28;20133;-63
2022/10/13 05:40:29;;;;;;;26.25;11.07;;;;;;;11.03;69.22;100519.78;3144553;28;20574;-63
2022/10/13 05:41:59;;;;;;;28.17;11.25;;;;;;;11.07;69.17;100521.38;3144576;28;20052;-63
2022/10/13 05:43:32;;;;;;;29.73;11.07;;;;;;;11.08;69.24;100525.69;3144614;28;20394;-64
2022/10/13 05:45:05;;;;;;;23.42;10.80;;;;;;;11.05;69.17;100525.78;3144426;28;20134;-64
2022/10/13 05:46:37;;;;;;;23.15;11.07;;;;;;;11.10;69.31;100524.72;3143774;28;20044;-63
2022/10/13 05:48:09;;;;;;;24.50;10.65;;;;;;;11.15;69.00;100522.81;3144624;28;20422;-62
2022/10/13 05:49:41;;;;;;;21.50;10.63;;;;;;;11.16;69.21;100526.28;3144110;28;20044;-63
2022/10/13 05:51:15;;;;;;;22.55;9.73;;;;;;;11.21;68.84;100524.34;3144307;28;20122;-62
2022/10/13 05:52:47;;;;;;;19.67;10.95;;;;;;;11.20;68.89;100527.84;3144315;28;20056;-62
2022/10/13 05:54:25;;;;;;;19.80;9.40;;;;;;;11.26;68.79;100537.22;3144156;28;20113;-63
2022/10/13 05:56:04;;;;;;;15.73;9.00;;;;;;;11.30;68.52;100541.44;3144321;28;20053;-62
2022/10/13 05:57:39;;;;;;;24.52;10.07;;;;;;;11.29;68.78;100539.72;3144355;28;20052;-63
2022/10/13 05:59:15;;;;;;;18.45;9.90;;;;;;;11.29;68.40;100539.72;3144363;28;20056;-63
2022/10/13 06:00:48;;;;;;;16.38;9.98;;;;;;;11.31;68.64;100535.28;3143642;28;20049;-61
2022/10/13 06:02:25;;;;;;;25.63;11.48;;;;;;;11.34;68.29;100535.19;3144032;28;20049;-63
2022/10/13 06:04:04;;;;;;;28.23;11.57;;;;;;;11.39;68.25;100528.91;3144004;28;20041;-66
2022/10/13 06:05:36;;;;;;;22.58;9.57;;;;;;;11.39;68.16;100533.28;3144447;28;20110;-63
2022/10/13 06:07:09;;;;;;;28.80;9.23;;;;;;;11.45;67.97;100533.03;3143474;28;20484;-63
2022/10/13 06:08:42;;;;;;;18.67;8.68;;;;;;;11.52;67.88;100531.03;3143872;28;20543;-63
2022/10/13 06:10:17;;;;;;;15.50;8.82;;;;;;;11.60;67.53;100535.06;3143426;28;20135;-63
2022/10/13 06:11:49;;;;;;;21.05;10.13;;;;;;;11.69;67.65;100543.47;3143261;28;20102;-63
2022/10/13 06:13:21;;;;;;;17.33;9.80;;;;;;;11.79;67.80;100542.19;3143023;28;20477;-64
2022/10/13 06:14:53;;;;;;;25.58;9.63;;;;;;;11.91;67.45;100535.69;3143405;28;20567;-63
2022/10/13 06:16:25;;;;;;;19.40;8.95;;;;;;;12.00;66.84;100536.16;3142894;28;20095;-62
2022/10/13 06:17:56;;;;;;;17.33;9.75;;;;;;;12.09;66.50;100537.56;3142826;28;20056;-63
2022/10/13 06:19:28;;;;;;;18.77;8.98;;;;;;;12.17;66.07;100540.72;3143043;28;20410;-63
2022/10/13 06:21:00;;;;;;;24.58;9.57;;;;;;;12.27;65.90;100538.59;3143010;28;20048;-62
2022/10/13 06:22:32;;;;;;;16.23;9.30;;;;;;;12.33;65.30;100543.56;3143069;28;20422;-62
2022/10/13 06:24:04;;;;;;;20.38;8.68;;;;;;;12.39;65.29;100543.31;3143107;28;20441;-63
2022/10/13 06:25:38;;;;;;;18.33;8.45;;;;;;;12.48;65.07;100540.34;3143228;28;20055;-63
2022/10/13 06:27:10;;;;;;;;;;;;;;;12.53;64.85;100535.75;3143461;28;20107;-64
2022/10/13 06:28:41;;;;;;;17.35;8.15;;;;;;;12.67;64.85;100532.56;3143037;28;19925;-63
2022/10/13 06:30:13;;;;;;;16.95;8.05;;;;;;;12.79;64.55;100533.81;3143056;28;20513;-63
2022/10/13 06:31:45;;;;;;;25.40;8.98;;;;;;;13.00;64.21;100539.06;3143103;28;20076;-63
2022/10/13 06:33:17;;;;;;;18.52;8.93;;;;;;;13.21;63.64;100532.88;3142832;28;20048;-63
2022/10/13 06:34:49;;;;;;;18.25;7.82;;;;;;;13.43;63.03;100531.03;3143184;28;20048;-63
2022/10/13 06:36:21;;;;;;;20.35;8.32;;;;;;;13.59;62.38;100517.25;3142853;28;20045;-63
2022/10/13 06:37:53;;;;;;;22.25;7.85;;;;;;;13.87;62.00;100532.50;3143044;28;20169;-62
2022/10/13 06:39:25;;;;;;;15.48;8.10;;;;;;;14.08;61.30;100521.03;3138299;28;20135;-63
2022/10/13 06:41:01;;;;;;;13.82;7.70;;;;;;;14.38;60.61;100524.84;3143270;28;20048;-63
2022/10/13 06:42:33;;;;;;;16.42;7.93;;;;;;;14.65;60.09;100527.88;3143844;28;20052;-63
2022/10/13 06:44:05;;;;;;;13.45;7.70;;;;;;;14.89;59.01;100528.41;3144526;28;20245;-63
2022/10/13 06:45:37;;;;;;;19.95;8.18;;;;;;;15.12;58.56;100525.44;3145801;28;20056;-63
2022/10/13 06:47:09;;;;;;;14.80;7.68;;;;;;;15.26;57.73;100524.69;3146614;28;20424;-64
2022/10/13 06:48:40;;;;;;;20.83;8.02;;;;;;;15.41;57.42;100525.66;3146374;28;20413;-63
2022/10/13 06:50:13;;;;;;;16.27;8.73;;;;;;;15.53;56.68;100526.78;3146597;28;20048;-63
2022/10/13 06:51:44;;;;;;;13.68;8.02;;;;;;;15.62;56.46;100519.25;3146235;28;20055;-63
2022/10/13 06:53:16;;;;;;;22.80;8.65;;;;;;;15.75;56.12;100521.25;3146191;28;20106;-63
2022/10/13 06:54:48;;;;;;;26.55;9.70;;;;;;;15.91;56.06;100520.31;3146511;28;20044;-63
2022/10/13 06:56:22;;;;;;;16.27;7.50;;;;;;;16.09;55.69;100520.19;3146465;28;20044;-62
2022/10/13 06:57:53;;;;;;;;;;;;;;;16.26;55.33;100522.72;3146648;28;20102;-63
2022/10/13 06:59:26;;;;;;;18.98;7.43;;;;;;;16.46;54.49;100516.31;3146477;28;19920;-62
2022/10/13 07:00:58;;;;;;;14.25;7.10;;;;;;;16.64;54.49;100519.66;3146271;28;20048;-62
2022/10/13 07:02:30;;;;;;;17.98;7.45;;;;;;;16.82;53.84;100517.75;3146428;28;20048;-62
2022/10/13 07:04:02;;;;;;;15.40;7.65;;;;;;;16.93;53.08;100522.38;3146080;28;20048;-63
2022/10/13 07:05:33;;;;;;;18.17;7.60;;;;;;;16.99;52.36;100524.63;3146125;28;20064;-62
2022/10/13 07:07:05;;;;;;;12.38;7.60;;;;;;;17.01;51.51;100518.34;3146276;28;20067;-62
2022/10/13 07:08:37;;;;;;;24.58;7.40;;;;;;;17.09;51.08;100522.28;3146178;28;20110;-62
2022/10/13 07:10:09;;;;;;;12.63;6.90;;;;;;;17.15;50.80;100520.09;3146363;28;20044;-62